createdAt,value
2024-02-24T00:02:05.046Z,8.60
2024-02-24T00:04:34.943Z,7.70
2024-02-24T00:07:05.075Z,8.50
2024-02-24T00:09:34.870Z,8.60
2024-02-24T00:12:06.155Z,8.00
2024-02-24T00:14:36.223Z,7.80
2024-02-24T00:17:06.336Z,8.00
2024-02-24T00:19:36.295Z,6.40
2024-02-24T00:22:06.296Z,7.80
2024-02-24T00:24:36.304Z,8.10
2024-02-24T00:27:06.317Z,9.00
2024-02-24T00:29:36.283Z,9.50
2024-02-24T00:32:07.161Z,8.50
2024-02-24T00:34:37.199Z,7.90
2024-02-24T00:37:07.139Z,8.30
2024-02-24T00:39:37.486Z,8.20
2024-02-24T00:42:10.580Z,7.60
2024-02-24T00:44:40.670Z,7.20
2024-02-24T00:47:10.682Z,8.00
2024-02-24T00:49:41.052Z,6.30
2024-02-24T00:52:10.890Z,6.40
2024-02-24T00:54:40.602Z,7.40
2024-02-24T00:57:10.541Z,8.70
2024-02-24T00:59:40.403Z,9.40
2024-02-24T01:02:10.808Z,8.50
2024-02-24T01:04:40.724Z,7.80
2024-02-24T01:07:11.888Z,8.10
2024-02-24T01:09:41.818Z,7.50
2024-02-24T01:12:11.692Z,7.60
2024-02-24T01:14:42.095Z,7.00
2024-02-24T01:17:12.045Z,7.00
2024-02-24T01:19:42.041Z,6.70
2024-02-24T01:22:11.826Z,6.60
2024-02-24T01:24:41.697Z,6.90
2024-02-24T01:27:11.634Z,7.40
2024-02-24T01:29:41.558Z,8.00
2024-02-24T01:32:11.494Z,7.90
2024-02-24T01:34:41.474Z,7.50
2024-02-24T01:37:11.365Z,6.30
2024-02-24T01:39:41.303Z,6.50
2024-02-24T01:42:11.111Z,5.60
2024-02-24T01:44:41.133Z,5.60
2024-02-24T01:47:11.704Z,6.20
2024-02-24T01:49:41.703Z,6.30
2024-02-24T01:52:11.528Z,5.50
2024-02-24T01:54:41.430Z,6.90
2024-02-24T01:57:11.234Z,7.80
2024-02-24T01:59:41.668Z,7.10
2024-02-24T02:02:11.640Z,7.80
2024-02-24T02:04:41.714Z,6.50
2024-02-24T02:07:11.597Z,7.10
2024-02-24T15:16:51.756Z,3.70
2024-02-24T15:20:23.350Z,3.80
2024-02-24T22:50:47.951Z,2.80
